Baltic Champion — 9HGN9 — position and weather

sailwx.info

Track history (hours):
 
Tides and Currents Weather Stations Pressure Air Temp Water Temp Dewpoint Dewpoint Depression Visibility Wind Speed Wind Dir Waves Ship Positions

Baltic Champion

Last reported at 2018-Feb-21 11:57 UTC. Time now 2018-Feb-23 06:49 UTC.
Position N 36°17' E 014°52'.

Length 182 m; draft 7.3 m.

Type: Ship. MMSI: 256960000.

Date/timePositionNaut miles runAvg speedWind from/ knotsBaromVisibWave heightAir tempDewpointWater temp
2018-Feb-21 11:57N 36°17' E 014°52'612.8
2018-Feb-21 11:30N 36°17' E 014°45'712.8
2018-Feb-21 11:00N 36°17' E 014°37'612.6
2018-Feb-21 10:30N 36°17' E 014°30'612.2
2018-Feb-21 10:00N 36°19' E 014°22'612.6
2018-Feb-21 09:29N 36°21' E 014°15'612.7
2018-Feb-21 08:59N 36°24' E 014°07'712.8
2018-Feb-21 08:27N 36°26' E 013°60'612.7
2018-Feb-21 08:00N 36°28' E 013°53'  
2018-Feb-17 14:21N 36°26' E 013°50'411.9
2018-Feb-17 14:00N 36°24' E 013°55'611.7
2018-Feb-17 13:30N 36°22' E 014°02'611.7
2018-Feb-17 13:00N 36°20' E 014°08'611.9
2018-Feb-17 12:29N 36°18' E 014°16'612.0
2018-Feb-17 12:00N 36°16' E 014°22'612.0
2018-Feb-17 11:31N 36°14' E 014°29'612.0
2018-Feb-17 11:00N 36°11' E 014°36'  
Track history (hours):
 
Tides and Currents Weather Stations Pressure Air Temp Water Temp Dewpoint Dewpoint Depression Visibility Wind Speed Wind Dir Waves Ship Positions

Baltic Champion

Last reported at 2018-Feb-21 11:57 UTC. Time now 2018-Feb-23 06:49 UTC.
Position N 36°17' E 014°52'.

Length 182 m; draft 7.3 m.

Type: Ship. MMSI: 256960000.

Date/timePositionNaut miles runAvg speedWind from/ knotsBaromVisibWave heightAir tempDewpointWater temp
2018-Feb-21 11:57N 36°17' E 014°52'612.8
2018-Feb-21 11:30N 36°17' E 014°45'712.8
2018-Feb-21 11:00N 36°17' E 014°37'612.6
2018-Feb-21 10:30N 36°17' E 014°30'612.2
2018-Feb-21 10:00N 36°19' E 014°22'612.6
2018-Feb-21 09:29N 36°21' E 014°15'612.7
2018-Feb-21 08:59N 36°24' E 014°07'712.8
2018-Feb-21 08:27N 36°26' E 013°60'612.7
2018-Feb-21 08:00N 36°28' E 013°53'  
2018-Feb-17 14:21N 36°26' E 013°50'411.9
2018-Feb-17 14:00N 36°24' E 013°55'611.7
2018-Feb-17 13:30N 36°22' E 014°02'611.7
2018-Feb-17 13:00N 36°20' E 014°08'611.9
2018-Feb-17 12:29N 36°18' E 014°16'612.0
2018-Feb-17 12:00N 36°16' E 014°22'612.0
2018-Feb-17 11:31N 36°14' E 014°29'612.0
2018-Feb-17 11:00N 36°11' E 014°36'  

Dump ship's entire track history